Terminal Aerodrome Forecast
Issued by NWS

Home | Current Version | Previous Version | Text Only | Print | Product List | Glossary On
Versions: 1 2 3 4 5 6 7 8 9 10 11 12 13 14 15 16 17 18 19 20 21
000
FTUS41 KCAR 161100
TAFFVE
TAF
KFVE 161120Z 1612/1712 19005KT 6SM -SHRA BR OVC025
     FM161300 21007KT 4SM -SHRA BR OVC015
     FM161600 22007KT 6SM -SHRA BKN022
     FM161900 23007KT P6SM VCSH BKN030
     FM162100 24007KT P6SM BKN040
     FM170000 24006KT P6SM SCT045 BKN200
     FM171000 27005KT P6SM BKN090=

USA.gov is the U.S. government's official web portal to all federal, state and local government web resources and services.